sensor_id;sensor_type;location;lat;lon;timestamp;P1;durP1;ratioP1;P2;durP2;ratioP2
17917;SDS011;9084;50.956;3.106;2023-04-15T00:01:41;2.33;;;2.15;;
17917;SDS011;9084;50.956;3.106;2023-04-15T00:04:06;2.63;;;2.30;;
17917;SDS011;9084;50.956;3.106;2023-04-15T00:06:33;2.58;;;2.13;;
17917;SDS011;9084;50.956;3.106;2023-04-15T00:09:01;2.58;;;2.00;;
17917;SDS011;9084;50.956;3.106;2023-04-15T00:11:29;2.78;;;2.33;;
17917;SDS011;9084;50.956;3.106;2023-04-15T00:13:54;2.20;;;2.00;;
17917;SDS011;9084;50.956;3.106;2023-04-15T00:16:20;1.80;;;1.70;;
17917;SDS011;9084;50.956;3.106;2023-04-15T00:18:46;2.40;;;2.20;;
17917;SDS011;9084;50.956;3.106;2023-04-15T00:21:13;3.65;;;1.80;;
17917;SDS011;9084;50.956;3.106;2023-04-15T00:23:39;1.90;;;1.80;;
17917;SDS011;9084;50.956;3.106;2023-04-15T00:26:05;2.13;;;1.92;;
17917;SDS011;9084;50.956;3.106;2023-04-15T00:28:33;1.95;;;1.85;;
17917;SDS011;9084;50.956;3.106;2023-04-15T00:30:59;2.55;;;1.98;;
17917;SDS011;9084;50.956;3.106;2023-04-15T00:33:27;2.63;;;2.28;;
17917;SDS011;9084;50.956;3.106;2023-04-15T00:35:53;3.15;;;2.40;;
17917;SDS011;9084;50.956;3.106;2023-04-15T00:38:21;2.97;;;2.70;;
17917;SDS011;9084;50.956;3.106;2023-04-15T00:40:52;4.53;;;2.67;;
17917;SDS011;9084;50.956;3.106;2023-04-15T00:43:17;4.18;;;2.95;;
17917;SDS011;9084;50.956;3.106;2023-04-15T00:45:46;3.30;;;2.60;;
17917;SDS011;9084;50.956;3.106;2023-04-15T00:48:11;2.95;;;2.65;;
17917;SDS011;9084;50.956;3.106;2023-04-15T00:50:37;3.63;;;3.20;;
17917;SDS011;9084;50.956;3.106;2023-04-15T00:53:03;4.78;;;2.60;;
17917;SDS011;9084;50.956;3.106;2023-04-15T00:55:29;2.50;;;2.30;;
17917;SDS011;9084;50.956;3.106;2023-04-15T00:57:56;3.03;;;2.67;;
17917;SDS011;9084;50.956;3.106;2023-04-15T01:00:24;2.33;;;2.05;;
17917;SDS011;9084;50.956;3.106;2023-04-15T01:02:50;2.40;;;2.20;;
17917;SDS011;9084;50.956;3.106;2023-04-15T01:05:16;2.70;;;2.50;;
17917;SDS011;9084;50.956;3.106;2023-04-15T01:07:45;2.33;;;2.13;;
17917;SDS011;9084;50.956;3.106;2023-04-15T01:10:12;3.33;;;2.25;;
17917;SDS011;9084;50.956;3.106;2023-04-15T01:12:40;2.22;;;2.03;;
17917;SDS011;9084;50.956;3.106;2023-04-15T01:15:09;2.13;;;1.92;;
17917;SDS011;9084;50.956;3.106;2023-04-15T01:17:35;2.35;;;2.15;;
17917;SDS011;9084;50.956;3.106;2023-04-15T01:20:03;2.53;;;2.33;;
17917;SDS011;9084;50.956;3.106;2023-04-15T01:22:29;2.65;;;2.45;;
17917;SDS011;9084;50.956;3.106;2023-04-15T01:25:17;2.55;;;2.42;;
17917;SDS011;9084;50.956;3.106;2023-04-15T01:27:44;2.55;;;2.30;;
17917;SDS011;9084;50.956;3.106;2023-04-15T01:30:10;3.55;;;2.10;;
17917;SDS011;9084;50.956;3.106;2023-04-15T01:32:36;1.95;;;1.75;;
17917;SDS011;9084;50.956;3.106;2023-04-15T01:35:02;2.55;;;2.30;;
17917;SDS011;9084;50.956;3.106;2023-04-15T01:37:27;2.58;;;1.98;;
17917;SDS011;9084;50.956;3.106;2023-04-15T01:39:54;3.38;;;2.08;;
17917;SDS011;9084;50.956;3.106;2023-04-15T01:42:21;2.72;;;2.30;;
17917;SDS011;9084;50.956;3.106;2023-04-15T01:44:47;2.40;;;2.20;;
17917;SDS011;9084;50.956;3.106;2023-04-15T01:47:12;2.53;;;2.33;;
17917;SDS011;9084;50.956;3.106;2023-04-15T01:49:38;2.95;;;2.75;;
17917;SDS011;9084;50.956;3.106;2023-04-15T01:52:06;2.70;;;2.50;;
17917;SDS011;9084;50.956;3.106;2023-04-15T01:54:32;3.30;;;2.33;;
17917;SDS011;9084;50.956;3.106;2023-04-15T01:57:02;2.70;;;2.50;;
17917;SDS011;9084;50.956;3.106;2023-04-15T01:59:31;2.88;;;2.65;;
17917;SDS011;9084;50.956;3.106;2023-04-15T02:01:58;2.35;;;2.20;;
17917;SDS011;9084;50.956;3.106;2023-04-15T02:04:24;2.53;;;2.10;;
17917;SDS011;9084;50.956;3.106;2023-04-15T02:06:50;2.58;;;2.40;;
17917;SDS011;9084;50.956;3.106;2023-04-15T02:09:16;2.55;;;2.35;;
17917;SDS011;9084;50.956;3.106;2023-04-15T02:11:46;2.88;;;2.67;;
17917;SDS011;9084;50.956;3.106;2023-04-15T02:14:12;2.10;;;2.00;;
17917;SDS011;9084;50.956;3.106;2023-04-15T02:16:40;2.50;;;2.30;;
17917;SDS011;9084;50.956;3.106;2023-04-15T02:19:08;2.55;;;2.28;;
17917;SDS011;9084;50.956;3.106;2023-04-15T02:21:34;2.58;;;2.38;;
17917;SDS011;9084;50.956;3.106;2023-04-15T02:23:59;2.13;;;2.03;;
17917;SDS011;9084;50.956;3.106;2023-04-15T02:26:26;2.67;;;2.47;;
17917;SDS011;9084;50.956;3.106;2023-04-15T02:28:53;4.00;;;2.60;;
17917;SDS011;9084;50.956;3.106;2023-04-15T02:31:21;3.00;;;2.15;;
17917;SDS011;9084;50.956;3.106;2023-04-15T02:33:47;2.90;;;2.50;;
17917;SDS011;9084;50.956;3.106;2023-04-15T02:36:15;2.50;;;2.30;;
17917;SDS011;9084;50.956;3.106;2023-04-15T02:38:41;2.50;;;2.30;;
17917;SDS011;9084;50.956;3.106;2023-04-15T02:41:10;3.25;;;2.55;;
17917;SDS011;9084;50.956;3.106;2023-04-15T02:43:40;2.80;;;2.60;;
17917;SDS011;9084;50.956;3.106;2023-04-15T02:46:06;2.42;;;2.22;;
17917;SDS011;9084;50.956;3.106;2023-04-15T02:48:31;2.67;;;2.47;;
17917;SDS011;9084;50.956;3.106;2023-04-15T02:51:12;2.80;;;2.60;;
17917;SDS011;9084;50.956;3.106;2023-04-15T02:53:39;3.08;;;2.88;;
17917;SDS011;9084;50.956;3.106;2023-04-15T02:56:07;3.17;;;2.97;;
17917;SDS011;9084;50.956;3.106;2023-04-15T02:58:34;3.15;;;2.95;;
17917;SDS011;9084;50.956;3.106;2023-04-15T03:01:02;3.40;;;3.20;;
17917;SDS011;9084;50.956;3.106;2023-04-15T03:03:32;3.45;;;3.15;;
17917;SDS011;9084;50.956;3.106;2023-04-15T03:06:01;3.10;;;2.90;;
17917;SDS011;9084;50.956;3.106;2023-04-15T03:08:26;3.85;;;3.55;;
17917;SDS011;9084;50.956;3.106;2023-04-15T03:10:52;4.88;;;4.38;;
17917;SDS011;9084;50.956;3.106;2023-04-15T03:13:18;3.95;;;3.65;;
17917;SDS011;9084;50.956;3.106;2023-04-15T03:15:48;4.50;;;4.10;;
17917;SDS011;9084;50.956;3.106;2023-04-15T03:18:19;4.25;;;3.95;;
17917;SDS011;9084;50.956;3.106;2023-04-15T03:20:45;4.50;;;4.10;;
17917;SDS011;9084;50.956;3.106;2023-04-15T03:23:15;4.78;;;4.28;;
17917;SDS011;9084;50.956;3.106;2023-04-15T03:25:43;5.07;;;4.68;;
17917;SDS011;9084;50.956;3.106;2023-04-15T03:28:14;5.22;;;4.72;;
17917;SDS011;9084;50.956;3.106;2023-04-15T03:30:39;6.70;;;4.95;;
17917;SDS011;9084;50.956;3.106;2023-04-15T03:33:06;5.82;;;5.32;;
17917;SDS011;9084;50.956;3.106;2023-04-15T03:35:34;6.07;;;5.63;;
17917;SDS011;9084;50.956;3.106;2023-04-15T03:37:59;6.07;;;5.57;;
17917;SDS011;9084;50.956;3.106;2023-04-15T03:40:25;6.15;;;5.75;;
17917;SDS011;9084;50.956;3.106;2023-04-15T03:42:51;5.70;;;5.25;;
17917;SDS011;9084;50.956;3.106;2023-04-15T03:45:16;6.25;;;5.65;;
17917;SDS011;9084;50.956;3.106;2023-04-15T03:47:42;6.40;;;5.80;;
17917;SDS011;9084;50.956;3.106;2023-04-15T03:50:08;6.88;;;5.82;;
17917;SDS011;9084;50.956;3.106;2023-04-15T03:52:33;6.57;;;5.97;;
17917;SDS011;9084;50.956;3.106;2023-04-15T03:54:59;6.47;;;5.97;;
17917;SDS011;9084;50.956;3.106;2023-04-15T03:57:25;6.38;;;5.88;;
17917;SDS011;9084;50.956;3.106;2023-04-15T03:59:51;7.25;;;6.65;;
17917;SDS011;9084;50.956;3.106;2023-04-15T04:02:17;7.00;;;6.50;;
17917;SDS011;9084;50.956;3.106;2023-04-15T04:04:47;7.40;;;6.78;;
17917;SDS011;9084;50.956;3.106;2023-04-15T04:07:14;7.45;;;6.78;;
17917;SDS011;9084;50.956;3.106;2023-04-15T04:09:40;7.38;;;6.70;;
17917;SDS011;9084;50.956;3.106;2023-04-15T04:12:06;7.05;;;6.35;;
17917;SDS011;9084;50.956;3.106;2023-04-15T04:14:36;7.00;;;6.40;;
17917;SDS011;9084;50.956;3.106;2023-04-15T04:17:05;6.47;;;5.97;;
17917;SDS011;9084;50.956;3.106;2023-04-15T04:19:30;7.28;;;6.60;;
17917;SDS011;9084;50.956;3.106;2023-04-15T04:21:56;7.32;;;6.72;;
17917;SDS011;9084;50.956;3.106;2023-04-15T04:24:22;7.03;;;6.43;;
17917;SDS011;9084;50.956;3.106;2023-04-15T04:26:50;7.03;;;6.45;;
17917;SDS011;9084;50.956;3.106;2023-04-15T04:29:16;7.53;;;6.93;;
17917;SDS011;9084;50.956;3.106;2023-04-15T04:31:41;7.38;;;6.65;;
17917;SDS011;9084;50.956;3.106;2023-04-15T04:34:09;7.40;;;6.80;;
17917;SDS011;9084;50.956;3.106;2023-04-15T04:36:35;7.43;;;6.82;;
17917;SDS011;9084;50.956;3.106;2023-04-15T04:39:01;7.70;;;5.97;;
17917;SDS011;9084;50.956;3.106;2023-04-15T04:41:29;6.60;;;6.03;;
17917;SDS011;9084;50.956;3.106;2023-04-15T04:43:54;7.60;;;6.82;;
17917;SDS011;9084;50.956;3.106;2023-04-15T04:46:20;7.28;;;6.72;;
17917;SDS011;9084;50.956;3.106;2023-04-15T04:48:45;6.50;;;6.00;;
17917;SDS011;9084;50.956;3.106;2023-04-15T04:51:11;8.43;;;7.10;;
17917;SDS011;9084;50.956;3.106;2023-04-15T04:53:39;7.60;;;6.90;;
17917;SDS011;9084;50.956;3.106;2023-04-15T04:56:07;8.60;;;7.80;;
17917;SDS011;9084;50.956;3.106;2023-04-15T04:58:35;8.73;;;7.95;;
17917;SDS011;9084;50.956;3.106;2023-04-15T05:01:03;9.63;;;8.82;;
17917;SDS011;9084;50.956;3.106;2023-04-15T05:03:31;9.57;;;8.48;;
17917;SDS011;9084;50.956;3.106;2023-04-15T05:05:57;9.82;;;8.93;;
17917;SDS011;9084;50.956;3.106;2023-04-15T05:08:26;9.25;;;8.32;;
17917;SDS011;9084;50.956;3.106;2023-04-15T05:10:51;10.48;;;9.45;;
17917;SDS011;9084;50.956;3.106;2023-04-15T05:13:20;11.13;;;10.10;;
17917;SDS011;9084;50.956;3.106;2023-04-15T05:15:45;11.55;;;10.45;;
17917;SDS011;9084;50.956;3.106;2023-04-15T05:18:11;11.85;;;10.68;;
17917;SDS011;9084;50.956;3.106;2023-04-15T05:20:39;13.45;;;12.27;;
17917;SDS011;9084;50.956;3.106;2023-04-15T05:23:10;11.88;;;10.88;;
17917;SDS011;9084;50.956;3.106;2023-04-15T05:25:35;13.48;;;12.15;;
17917;SDS011;9084;50.956;3.106;2023-04-15T05:28:01;13.93;;;12.15;;
17917;SDS011;9084;50.956;3.106;2023-04-15T05:30:29;13.02;;;11.93;;
17917;SDS011;9084;50.956;3.106;2023-04-15T05:32:57;12.77;;;11.57;;
17917;SDS011;9084;50.956;3.106;2023-04-15T05:35:25;12.57;;;11.38;;
17917;SDS011;9084;50.956;3.106;2023-04-15T05:37:53;13.60;;;12.27;;
17917;SDS011;9084;50.956;3.106;2023-04-15T05:40:19;13.30;;;12.05;;
17917;SDS011;9084;50.956;3.106;2023-04-15T05:42:45;12.10;;;11.00;;
17917;SDS011;9084;50.956;3.106;2023-04-15T05:45:13;12.43;;;11.23;;
17917;SDS011;9084;50.956;3.106;2023-04-15T05:47:38;11.52;;;10.43;;
17917;SDS011;9084;50.956;3.106;2023-04-15T05:50:04;11.80;;;10.52;;
17917;SDS011;9084;50.956;3.106;2023-04-15T05:52:33;11.45;;;10.32;;
17917;SDS011;9084;50.956;3.106;2023-04-15T05:54:59;11.98;;;9.82;;
17917;SDS011;9084;50.956;3.106;2023-04-15T05:57:27;10.25;;;9.25;;
17917;SDS011;9084;50.956;3.106;2023-04-15T05:59:57;9.73;;;8.82;;
17917;SDS011;9084;50.956;3.106;2023-04-15T06:02:25;10.27;;;8.85;;
17917;SDS011;9084;50.956;3.106;2023-04-15T06:04:51;9.00;;;8.25;;
17917;SDS011;9084;50.956;3.106;2023-04-15T06:07:17;9.15;;;7.97;;
17917;SDS011;9084;50.956;3.106;2023-04-15T06:09:43;10.27;;;8.43;;
17917;SDS011;9084;50.956;3.106;2023-04-15T06:12:09;8.57;;;7.70;;
17917;SDS011;9084;50.956;3.106;2023-04-15T06:14:36;8.95;;;8.10;;
17917;SDS011;9084;50.956;3.106;2023-04-15T06:17:03;9.10;;;8.27;;
17917;SDS011;9084;50.956;3.106;2023-04-15T06:19:28;8.88;;;7.63;;
17917;SDS011;9084;50.956;3.106;2023-04-15T06:21:57;9.07;;;8.18;;
17917;SDS011;9084;50.956;3.106;2023-04-15T06:24:23;9.18;;;7.53;;
17917;SDS011;9084;50.956;3.106;2023-04-15T06:26:48;10.35;;;9.38;;
17917;SDS011;9084;50.956;3.106;2023-04-15T06:29:17;12.13;;;7.95;;
17917;SDS011;9084;50.956;3.106;2023-04-15T06:31:42;8.85;;;7.70;;
17917;SDS011;9084;50.956;3.106;2023-04-15T06:34:10;8.23;;;7.55;;
17917;SDS011;9084;50.956;3.106;2023-04-15T06:36:36;8.35;;;7.45;;
17917;SDS011;9084;50.956;3.106;2023-04-15T06:39:02;7.82;;;7.03;;
17917;SDS011;9084;50.956;3.106;2023-04-15T06:41:30;8.02;;;7.25;;
17917;SDS011;9084;50.956;3.106;2023-04-15T06:43:59;7.97;;;7.22;;
17917;SDS011;9084;50.956;3.106;2023-04-15T06:46:25;8.43;;;7.63;;
17917;SDS011;9084;50.956;3.106;2023-04-15T06:48:50;7.65;;;6.88;;
17917;SDS011;9084;50.956;3.106;2023-04-15T06:51:16;8.70;;;7.90;;
17917;SDS011;9084;50.956;3.106;2023-04-15T06:53:44;10.40;;;7.47;;
17917;SDS011;9084;50.956;3.106;2023-04-15T06:56:12;8.63;;;7.78;;
17917;SDS011;9084;50.956;3.106;2023-04-15T06:58:37;8.52;;;7.70;;
17917;SDS011;9084;50.956;3.106;2023-04-15T07:01:03;9.27;;;6.93;;
17917;SDS011;9084;50.956;3.106;2023-04-15T07:03:31;7.80;;;6.97;;
17917;SDS011;9084;50.956;3.106;2023-04-15T07:06:01;8.35;;;7.55;;
17917;SDS011;9084;50.956;3.106;2023-04-15T07:08:31;9.32;;;8.27;;
17917;SDS011;9084;50.956;3.106;2023-04-15T07:11:00;9.82;;;8.82;;
17917;SDS011;9084;50.956;3.106;2023-04-15T07:13:26;8.57;;;7.80;;
17917;SDS011;9084;50.956;3.106;2023-04-15T07:15:52;9.30;;;8.40;;
17917;SDS011;9084;50.956;3.106;2023-04-15T07:18:17;9.77;;;8.77;;
17917;SDS011;9084;50.956;3.106;2023-04-15T07:20:43;10.45;;;8.77;;
17917;SDS011;9084;50.956;3.106;2023-04-15T07:23:11;9.70;;;8.68;;
17917;SDS011;9084;50.956;3.106;2023-04-15T07:25:36;8.85;;;8.02;;
17917;SDS011;9084;50.956;3.106;2023-04-15T07:28:04;11.20;;;9.07;;
17917;SDS011;9084;50.956;3.106;2023-04-15T07:30:32;14.82;;;8.75;;
17917;SDS011;9084;50.956;3.106;2023-04-15T07:32:58;9.18;;;8.27;;
17917;SDS011;9084;50.956;3.106;2023-04-15T07:35:27;9.82;;;7.53;;
17917;SDS011;9084;50.956;3.106;2023-04-15T07:37:53;8.18;;;7.38;;
17917;SDS011;9084;50.956;3.106;2023-04-15T07:40:21;7.90;;;6.85;;
17917;SDS011;9084;50.956;3.106;2023-04-15T07:42:50;7.22;;;6.63;;
17917;SDS011;9084;50.956;3.106;2023-04-15T07:45:21;7.55;;;6.85;;
17917;SDS011;9084;50.956;3.106;2023-04-15T07:47:49;7.25;;;6.63;;
17917;SDS011;9084;50.956;3.106;2023-04-15T07:50:17;7.25;;;6.47;;
17917;SDS011;9084;50.956;3.106;2023-04-15T07:52:47;7.57;;;6.88;;
17917;SDS011;9084;50.956;3.106;2023-04-15T07:55:16;9.40;;;7.13;;
17917;SDS011;9084;50.956;3.106;2023-04-15T07:57:45;6.72;;;6.03;;
17917;SDS011;9084;50.956;3.106;2023-04-15T08:00:12;7.32;;;6.18;;
17917;SDS011;9084;50.956;3.106;2023-04-15T08:02:44;6.68;;;6.07;;
17917;SDS011;9084;50.956;3.106;2023-04-15T08:05:14;6.18;;;5.10;;
17917;SDS011;9084;50.956;3.106;2023-04-15T08:07:40;6.13;;;5.53;;
17917;SDS011;9084;50.956;3.106;2023-04-15T08:10:08;5.68;;;5.07;;
17917;SDS011;9084;50.956;3.106;2023-04-15T08:12:34;4.85;;;4.03;;
17917;SDS011;9084;50.956;3.106;2023-04-15T08:15:01;5.20;;;4.80;;
17917;SDS011;9084;50.956;3.106;2023-04-15T08:17:28;7.65;;;4.57;;
17917;SDS011;9084;50.956;3.106;2023-04-15T08:19:54;6.18;;;4.78;;
17917;SDS011;9084;50.956;3.106;2023-04-15T08:22:20;5.75;;;4.05;;
17917;SDS011;9084;50.956;3.106;2023-04-15T08:24:45;5.63;;;4.00;;
17917;SDS011;9084;50.956;3.106;2023-04-15T08:27:11;4.10;;;3.58;;
17917;SDS011;9084;50.956;3.106;2023-04-15T08:29:40;4.35;;;3.97;;
17917;SDS011;9084;50.956;3.106;2023-04-15T08:32:05;5.35;;;3.63;;
17917;SDS011;9084;50.956;3.106;2023-04-15T08:34:36;4.57;;;3.95;;
17917;SDS011;9084;50.956;3.106;2023-04-15T08:37:02;4.35;;;3.72;;
17917;SDS011;9084;50.956;3.106;2023-04-15T08:39:27;4.80;;;3.60;;
17917;SDS011;9084;50.956;3.106;2023-04-15T08:41:59;4.68;;;3.95;;
17917;SDS011;9084;50.956;3.106;2023-04-15T08:44:34;3.92;;;3.35;;
17917;SDS011;9084;50.956;3.106;2023-04-15T08:47:03;3.90;;;3.47;;
17917;SDS011;9084;50.956;3.106;2023-04-15T08:49:38;4.20;;;3.47;;
17917;SDS011;9084;50.956;3.106;2023-04-15T08:52:05;5.00;;;3.78;;
17917;SDS011;9084;50.956;3.106;2023-04-15T08:54:33;4.70;;;4.28;;
17917;SDS011;9084;50.956;3.106;2023-04-15T08:57:02;5.68;;;4.65;;
17917;SDS011;9084;50.956;3.106;2023-04-15T08:59:31;6.53;;;4.63;;
17917;SDS011;9084;50.956;3.106;2023-04-15T09:01:57;6.40;;;4.90;;
17917;SDS011;9084;50.956;3.106;2023-04-15T09:04:23;5.90;;;5.35;;
17917;SDS011;9084;50.956;3.106;2023-04-15T09:06:48;5.78;;;5.28;;
17917;SDS011;9084;50.956;3.106;2023-04-15T09:09:16;7.63;;;5.93;;
17917;SDS011;9084;50.956;3.106;2023-04-15T09:11:42;7.55;;;6.20;;
17917;SDS011;9084;50.956;3.106;2023-04-15T09:14:10;6.65;;;5.95;;
17917;SDS011;9084;50.956;3.106;2023-04-15T09:16:57;6.50;;;5.85;;
17917;SDS011;9084;50.956;3.106;2023-04-15T09:19:25;6.90;;;5.07;;
17917;SDS011;9084;50.956;3.106;2023-04-15T09:21:54;7.25;;;5.65;;
17917;SDS011;9084;50.956;3.106;2023-04-15T09:24:21;7.07;;;5.07;;
17917;SDS011;9084;50.956;3.106;2023-04-15T09:26:47;6.80;;;5.13;;
17917;SDS011;9084;50.956;3.106;2023-04-15T09:29:20;5.95;;;5.28;;
17917;SDS011;9084;50.956;3.106;2023-04-15T09:31:51;8.35;;;5.25;;
17917;SDS011;9084;50.956;3.106;2023-04-15T09:34:17;6.13;;;4.80;;
17917;SDS011;9084;50.956;3.106;2023-04-15T09:39:12;4.90;;;4.35;;
17917;SDS011;9084;50.956;3.106;2023-04-15T09:41:40;5.95;;;4.53;;
17917;SDS011;9084;50.956;3.106;2023-04-15T09:44:21;4.90;;;4.40;;
17917;SDS011;9084;50.956;3.106;2023-04-15T09:46:47;4.60;;;3.95;;
17917;SDS011;9084;50.956;3.106;2023-04-15T09:49:15;6.68;;;4.35;;
17917;SDS011;9084;50.956;3.106;2023-04-15T09:51:42;4.90;;;4.40;;
17917;SDS011;9084;50.956;3.106;2023-04-15T09:54:08;5.50;;;4.05;;
17917;SDS011;9084;50.956;3.106;2023-04-15T09:56:37;5.55;;;4.38;;
17917;SDS011;9084;50.956;3.106;2023-04-15T09:59:06;4.82;;;4.32;;
17917;SDS011;9084;50.956;3.106;2023-04-15T10:01:33;6.40;;;4.63;;
17917;SDS011;9084;50.956;3.106;2023-04-15T10:04:01;6.45;;;4.78;;
17917;SDS011;9084;50.956;3.106;2023-04-15T10:06:28;6.68;;;4.72;;
17917;SDS011;9084;50.956;3.106;2023-04-15T10:08:56;5.65;;;5.05;;
17917;SDS011;9084;50.956;3.106;2023-04-15T10:11:22;5.85;;;5.25;;
17917;SDS011;9084;50.956;3.106;2023-04-15T10:13:49;8.00;;;5.05;;
17917;SDS011;9084;50.956;3.106;2023-04-15T10:16:15;6.22;;;5.45;;
17917;SDS011;9084;50.956;3.106;2023-04-15T10:18:46;6.63;;;5.72;;
17917;SDS011;9084;50.956;3.106;2023-04-15T10:21:15;6.45;;;5.43;;
17917;SDS011;9084;50.956;3.106;2023-04-15T10:23:44;6.65;;;5.93;;
17917;SDS011;9084;50.956;3.106;2023-04-15T10:26:10;6.57;;;5.30;;
17917;SDS011;9084;50.956;3.106;2023-04-15T10:28:38;6.38;;;5.78;;
17917;SDS011;9084;50.956;3.106;2023-04-15T10:31:04;7.50;;;6.68;;
17917;SDS011;9084;50.956;3.106;2023-04-15T10:33:31;6.80;;;6.15;;
17917;SDS011;9084;50.956;3.106;2023-04-15T10:35:59;9.13;;;6.70;;
17917;SDS011;9084;50.956;3.106;2023-04-15T10:38:41;8.35;;;6.68;;
17917;SDS011;9084;50.956;3.106;2023-04-15T10:49:09;7.25;;;6.20;;
17917;SDS011;9084;50.956;3.106;2023-04-15T10:51:37;6.47;;;5.97;;
17917;SDS011;9084;50.956;3.106;2023-04-15T10:54:11;6.28;;;5.70;;
17917;SDS011;9084;50.956;3.106;2023-04-15T10:59:28;6.82;;;5.82;;
17917;SDS011;9084;50.956;3.106;2023-04-15T11:01:55;7.78;;;5.45;;
17917;SDS011;9084;50.956;3.106;2023-04-15T11:07:36;6.63;;;5.55;;
17917;SDS011;9084;50.956;3.106;2023-04-15T11:10:03;5.38;;;4.90;;
17917;SDS011;9084;50.956;3.106;2023-04-15T11:12:49;6.05;;;5.55;;
17917;SDS011;9084;50.956;3.106;2023-04-15T11:18:10;6.60;;;5.45;;
17917;SDS011;9084;50.956;3.106;2023-04-15T11:20:44;6.55;;;5.78;;
17917;SDS011;9084;50.956;3.106;2023-04-15T11:23:19;5.93;;;5.22;;
17917;SDS011;9084;50.956;3.106;2023-04-15T11:26:02;6.45;;;5.85;;
17917;SDS011;9084;50.956;3.106;2023-04-15T11:28:33;5.80;;;5.30;;
17917;SDS011;9084;50.956;3.106;2023-04-15T11:31:09;6.20;;;5.43;;
17917;SDS011;9084;50.956;3.106;2023-04-15T11:33:58;4.93;;;4.43;;
17917;SDS011;9084;50.956;3.106;2023-04-15T11:36:27;5.70;;;5.07;;
17917;SDS011;9084;50.956;3.106;2023-04-15T11:38:56;4.68;;;4.28;;
17917;SDS011;9084;50.956;3.106;2023-04-15T11:41:23;5.63;;;4.78;;
17917;SDS011;9084;50.956;3.106;2023-04-15T11:43:49;4.68;;;4.22;;
17917;SDS011;9084;50.956;3.106;2023-04-15T11:46:15;5.22;;;4.72;;
17917;SDS011;9084;50.956;3.106;2023-04-15T11:48:44;4.93;;;4.40;;
17917;SDS011;9084;50.956;3.106;2023-04-15T11:51:13;4.82;;;4.50;;
17917;SDS011;9084;50.956;3.106;2023-04-15T11:53:49;6.35;;;5.00;;
17917;SDS011;9084;50.956;3.106;2023-04-15T11:56:24;3.78;;;3.47;;
17917;SDS011;9084;50.956;3.106;2023-04-15T11:58:54;4.38;;;3.97;;
17917;SDS011;9084;50.956;3.106;2023-04-15T12:01:30;3.90;;;3.47;;
17917;SDS011;9084;50.956;3.106;2023-04-15T12:03:56;5.68;;;4.13;;
17917;SDS011;9084;50.956;3.106;2023-04-15T12:06:28;5.30;;;4.80;;
17917;SDS011;9084;50.956;3.106;2023-04-15T12:08:59;4.97;;;4.50;;
17917;SDS011;9084;50.956;3.106;2023-04-15T12:11:35;5.80;;;5.15;;
17917;SDS011;9084;50.956;3.106;2023-04-15T12:14:06;6.05;;;5.15;;
17917;SDS011;9084;50.956;3.106;2023-04-15T12:16:41;7.95;;;4.03;;
17917;SDS011;9084;50.956;3.106;2023-04-15T12:19:13;3.92;;;3.58;;
17917;SDS011;9084;50.956;3.106;2023-04-15T12:21:43;4.70;;;4.20;;
17917;SDS011;9084;50.956;3.106;2023-04-15T12:24:12;2.33;;;1.95;;
17917;SDS011;9084;50.956;3.106;2023-04-15T12:26:45;2.70;;;1.92;;
17917;SDS011;9084;50.956;3.106;2023-04-15T12:29:15;2.20;;;1.52;;
17917;SDS011;9084;50.956;3.106;2023-04-15T12:31:51;2.45;;;1.60;;
17917;SDS011;9084;50.956;3.106;2023-04-15T12:34:26;1.58;;;1.10;;
17917;SDS011;9084;50.956;3.106;2023-04-15T12:37:03;2.40;;;1.75;;
17917;SDS011;9084;50.956;3.106;2023-04-15T12:39:34;2.47;;;1.92;;
17917;SDS011;9084;50.956;3.106;2023-04-15T12:42:03;3.20;;;1.88;;
17917;SDS011;9084;50.956;3.106;2023-04-15T12:44:35;3.05;;;2.47;;
17917;SDS011;9084;50.956;3.106;2023-04-15T12:47:02;2.40;;;2.20;;
17917;SDS011;9084;50.956;3.106;2023-04-15T12:49:30;4.82;;;4.40;;
17917;SDS011;9084;50.956;3.106;2023-04-15T12:51:57;7.60;;;4.38;;
17917;SDS011;9084;50.956;3.106;2023-04-15T12:54:24;6.50;;;4.93;;
17917;SDS011;9084;50.956;3.106;2023-04-15T12:56:52;6.07;;;5.13;;
17917;SDS011;9084;50.956;3.106;2023-04-15T12:59:18;5.75;;;5.15;;
17917;SDS011;9084;50.956;3.106;2023-04-15T13:01:45;5.82;;;4.93;;
17917;SDS011;9084;50.956;3.106;2023-04-15T13:04:12;5.70;;;5.15;;
17917;SDS011;9084;50.956;3.106;2023-04-15T13:06:39;6.28;;;5.68;;
17917;SDS011;9084;50.956;3.106;2023-04-15T13:09:07;7.03;;;6.32;;
17917;SDS011;9084;50.956;3.106;2023-04-15T13:11:33;7.15;;;6.45;;
17917;SDS011;9084;50.956;3.106;2023-04-15T13:14:07;6.97;;;6.30;;
17917;SDS011;9084;50.956;3.106;2023-04-15T13:16:33;6.90;;;6.30;;
17917;SDS011;9084;50.956;3.106;2023-04-15T13:18:59;6.07;;;5.47;;
17917;SDS011;9084;50.956;3.106;2023-04-15T13:21:26;6.60;;;6.10;;
17917;SDS011;9084;50.956;3.106;2023-04-15T13:23:53;6.15;;;5.63;;
17917;SDS011;9084;50.956;3.106;2023-04-15T13:26:18;6.78;;;6.15;;
17917;SDS011;9084;50.956;3.106;2023-04-15T13:28:44;7.10;;;6.00;;
17917;SDS011;9084;50.956;3.106;2023-04-15T13:31:10;7.30;;;6.20;;
17917;SDS011;9084;50.956;3.106;2023-04-15T13:33:38;7.28;;;6.47;;
17917;SDS011;9084;50.956;3.106;2023-04-15T13:36:04;6.60;;;6.00;;
17917;SDS011;9084;50.956;3.106;2023-04-15T13:38:30;6.78;;;5.88;;
17917;SDS011;9084;50.956;3.106;2023-04-15T13:40:57;6.38;;;5.88;;
17917;SDS011;9084;50.956;3.106;2023-04-15T13:43:25;7.07;;;6.43;;
17917;SDS011;9084;50.956;3.106;2023-04-15T13:45:55;7.38;;;6.72;;
17917;SDS011;9084;50.956;3.106;2023-04-15T13:48:23;7.90;;;7.18;;
17917;SDS011;9084;50.956;3.106;2023-04-15T13:50:51;7.38;;;6.45;;
17917;SDS011;9084;50.956;3.106;2023-04-15T13:53:19;7.68;;;7.05;;
17917;SDS011;9084;50.956;3.106;2023-04-15T13:55:49;8.13;;;7.32;;
17917;SDS011;9084;50.956;3.106;2023-04-15T13:58:15;8.30;;;6.07;;
17917;SDS011;9084;50.956;3.106;2023-04-15T14:00:41;7.13;;;6.53;;
17917;SDS011;9084;50.956;3.106;2023-04-15T14:03:06;7.03;;;6.40;;
17917;SDS011;9084;50.956;3.106;2023-04-15T14:05:32;6.50;;;5.80;;
17917;SDS011;9084;50.956;3.106;2023-04-15T14:07:58;7.90;;;6.25;;
17917;SDS011;9084;50.956;3.106;2023-04-15T14:10:26;7.13;;;6.53;;
17917;SDS011;9084;50.956;3.106;2023-04-15T14:12:52;6.47;;;5.88;;
17917;SDS011;9084;50.956;3.106;2023-04-15T14:15:22;7.53;;;6.35;;
17917;SDS011;9084;50.956;3.106;2023-04-15T14:17:50;6.55;;;5.90;;
17917;SDS011;9084;50.956;3.106;2023-04-15T14:20:16;6.70;;;6.10;;
17917;SDS011;9084;50.956;3.106;2023-04-15T14:22:44;7.00;;;6.30;;
17917;SDS011;9084;50.956;3.106;2023-04-15T14:25:10;6.10;;;5.50;;
17917;SDS011;9084;50.956;3.106;2023-04-15T14:27:38;6.72;;;5.47;;
17917;SDS011;9084;50.956;3.106;2023-04-15T14:30:06;7.10;;;6.40;;
17917;SDS011;9084;50.956;3.106;2023-04-15T14:32:34;7.25;;;6.13;;
17917;SDS011;9084;50.956;3.106;2023-04-15T14:35:00;7.05;;;5.40;;
17917;SDS011;9084;50.956;3.106;2023-04-15T14:37:26;7.00;;;5.38;;
17917;SDS011;9084;50.956;3.106;2023-04-15T14:39:52;6.20;;;4.82;;
17917;SDS011;9084;50.956;3.106;2023-04-15T14:42:17;6.72;;;5.30;;
17917;SDS011;9084;50.956;3.106;2023-04-15T14:44:43;6.65;;;4.72;;
17917;SDS011;9084;50.956;3.106;2023-04-15T14:47:11;5.45;;;4.65;;
17917;SDS011;9084;50.956;3.106;2023-04-15T14:49:39;4.40;;;4.00;;
17917;SDS011;9084;50.956;3.106;2023-04-15T14:52:04;4.95;;;4.25;;
17917;SDS011;9084;50.956;3.106;2023-04-15T14:54:32;5.47;;;4.45;;
17917;SDS011;9084;50.956;3.106;2023-04-15T14:56:58;7.13;;;4.40;;
17917;SDS011;9084;50.956;3.106;2023-04-15T14:59:23;6.97;;;4.28;;
17917;SDS011;9084;50.956;3.106;2023-04-15T15:01:49;6.43;;;4.15;;
17917;SDS011;9084;50.956;3.106;2023-04-15T15:04:15;4.05;;;3.50;;
17917;SDS011;9084;50.956;3.106;2023-04-15T15:06:40;3.90;;;2.53;;
17917;SDS011;9084;50.956;3.106;2023-04-15T15:09:06;6.13;;;2.63;;
17917;SDS011;9084;50.956;3.106;2023-04-15T15:11:32;2.67;;;2.30;;
17917;SDS011;9084;50.956;3.106;2023-04-15T15:13:58;3.95;;;2.30;;
17917;SDS011;9084;50.956;3.106;2023-04-15T15:16:23;3.35;;;2.00;;
17917;SDS011;9084;50.956;3.106;2023-04-15T15:18:49;4.13;;;1.95;;
17917;SDS011;9084;50.956;3.106;2023-04-15T15:21:15;2.53;;;1.55;;
17917;SDS011;9084;50.956;3.106;2023-04-15T15:23:43;2.17;;;1.17;;